Time;durP1;ratioP1;P1;durP2;ratioP2;P2;SDS_P1;SDS_P2;PMS_P1;PMS_P2;Temp;Humidity;BMP_temperature;BMP_pressure;BME280_temperature;BME280_humidity;BME280_pressure;Samples;Min_cycle;Max_cycle;Signal;HPM_P1;HPM_P2
2022/06/03 00:01:31;;;;;;;4.30;3.47;;;;;;;9.52;100.00;102239.06;5030057;28;20111;-72
2022/06/03 00:04:22;;;;;;;4.65;3.35;;;;;;;9.48;100.00;102243.53;5031810;28;20065;-72
2022/06/03 00:07:05;;;;;;;6.93;3.53;;;;;;;9.45;100.00;102246.25;5030037;28;20071;-72
2022/06/03 00:09:55;;;;;;;6.30;4.00;;;;;;;9.45;100.00;102245.34;5029997;28;20040;-72
2022/06/03 00:12:32;;;;;;;5.68;3.92;;;;;;;9.44;100.00;102246.25;5031255;28;20044;-71
2022/06/03 00:15:13;;;;;;;6.78;3.85;;;;;;;9.43;100.00;102244.53;5028752;28;20053;-72
2022/06/03 00:17:51;;;;;;;8.95;3.90;;;;;;;9.40;100.00;102237.53;5023335;28;20075;-71
2022/06/03 00:20:44;;;;;;;8.05;5.05;;;;;;;9.41;100.00;102238.41;5033003;28;20414;-72
2022/06/03 00:23:43;;;;;;;6.05;4.00;;;;;;;9.41;100.00;102243.69;5029288;28;20432;-71
2022/06/03 00:26:29;;;;;;;5.97;3.70;;;;;;;9.38;100.00;102245.47;5028377;28;20530;-72
2022/06/03 00:28:54;;;;;;;7.55;3.80;;;;;;;9.40;100.00;102241.91;5021574;28;20048;-71
2022/06/03 00:31:31;;;;;;;6.45;3.67;;;;;;;9.38;100.00;102247.25;5027921;28;20033;-71
2022/06/03 00:34:19;;;;;;;7.63;3.97;;;;;;;9.36;100.00;102252.56;4991043;28;20033;-72
2022/06/03 00:37:13;;;;;;;5.68;3.70;;;;;;;9.35;100.00;102248.19;5018514;28;20067;-72
2022/06/03 00:39:42;;;;;;;5.43;3.92;;;;;;;9.34;100.00;102243.78;5034924;28;20048;-72
2022/06/03 00:42:43;;;;;;;5.72;4.20;;;;;;;9.33;100.00;102241.16;5017364;28;20159;-72
2022/06/03 00:45:52;;;;;;;8.32;4.35;;;;;;;9.33;100.00;102231.44;5025604;28;20075;-72
2022/06/03 00:48:44;;;;;;;5.28;3.85;;;;;;;9.32;100.00;102235.00;4988458;28;20052;-72
2022/06/03 00:51:48;;;;;;;6.07;3.80;;;;;;;9.31;100.00;102222.69;5018635;28;20029;-72
2022/06/03 00:54:44;;;;;;;6.95;4.32;;;;;;;9.30;100.00;102222.72;5027071;28;20040;-72
2022/06/03 00:57:32;;;;;;;5.03;4.00;;;;;;;9.28;100.00;102220.13;5034442;28;20182;-72
2022/06/03 01:00:24;;;;;;;6.97;4.22;;;;;;;9.28;100.00;102220.13;5035847;28;20032;-72
2022/06/03 01:03:09;;;;;;;7.97;3.92;;;;;;;9.28;100.00;102217.47;5025134;28;20490;-71
2022/06/03 01:06:02;;;;;;;7.85;3.85;;;;;;;9.25;100.00;102212.22;5034569;28;20059;-72
2022/06/03 01:08:54;;;;;;;5.38;3.40;;;;;;;9.24;100.00;102210.50;5000196;28;20135;-72
2022/06/03 01:11:47;;;;;;;5.00;3.60;;;;;;;9.22;100.00;102212.31;4989648;28;20044;-71
2022/06/03 01:14:36;;;;;;;;;;;;;;;9.21;100.00;102213.19;5033997;28;20071;-71
2022/06/03 01:17:21;;;;;;;6.75;3.72;;;;;;;9.18;100.00;102213.25;5013608;28;19974;-72
2022/06/03 01:19:55;;;;;;;6.38;3.50;;;;;;;9.17;100.00;102214.13;5034326;28;20086;-71
2022/06/03 01:22:50;;;;;;;12.20;4.60;;;;;;;9.15;100.00;102214.16;5034154;28;20736;-72
2022/06/03 01:25:35;;;;;;;5.18;3.88;;;;;;;9.14;100.00;102208.94;5024931;28;20044;-72
2022/06/03 01:28:25;;;;;;;5.28;4.07;;;;;;;9.09;100.00;102209.88;5033784;28;20044;-71
2022/06/03 01:31:03;;;;;;;5.65;4.13;;;;;;;9.08;100.00;102210.78;5032507;28;20061;-72
2022/06/03 01:34:23;;;;;;;6.05;4.68;;;;;;;9.06;100.00;102207.25;5025001;28;20033;-71
2022/06/03 01:37:03;;;;;;;5.90;4.10;;;;;;;9.06;100.00;102201.13;4973198;28;20054;-71
2022/06/03 01:39:39;;;;;;;9.05;3.97;;;;;;;9.06;100.00;102207.25;5006683;28;20159;-72
2022/06/03 01:42:36;;;;;;;6.65;4.32;;;;;;;9.08;100.00;102194.91;5025340;28;20037;-71
2022/06/03 01:45:16;;;;;;;7.65;4.20;;;;;;;9.10;100.00;102186.97;5008709;28;20037;-71
2022/06/03 01:48:04;;;;;;;6.55;4.20;;;;;;;9.15;100.00;102197.44;5034296;28;20155;-72
2022/06/03 01:51:01;;;;;;;6.70;4.07;;;;;;;9.18;100.00;102198.28;5016577;28;20021;-72
2022/06/03 01:54:22;;;;;;;7.93;4.05;;;;;;;9.19;100.00;102197.38;5032710;28;20260;-71
2022/06/03 01:56:58;;;;;;;5.43;3.97;;;;;;;9.21;100.00;102195.56;4987609;28;21470;-71
2022/06/03 01:59:32;;;;;;;6.53;4.43;;;;;;;9.22;100.00;102197.28;5036068;28;20067;-72
2022/06/03 02:02:16;;;;;;;7.68;5.00;;;;;;;9.23;100.00;102200.81;5035005;28;20039;-71
2022/06/03 02:05:19;;;;;;;6.25;4.38;;;;;;;9.20;100.00;102187.66;5034552;28;20116;-71
2022/06/03 02:08:00;;;;;;;5.68;4.07;;;;;;;9.19;100.00;102189.44;5032840;28;20047;-71
2022/06/03 02:10:41;;;;;;;6.60;4.80;;;;;;;9.15;100.00;102190.38;5033509;28;21376;-72
2022/06/03 02:13:09;;;;;;;6.63;3.78;;;;;;;9.10;100.00;102186.97;5032983;28;21870;-71
2022/06/03 02:15:46;;;;;;;6.78;4.25;;;;;;;9.06;100.00;102185.28;5034469;28;20039;-72
2022/06/03 02:18:33;;;;;;;7.82;4.22;;;;;;;9.03;100.00;102190.59;5033710;28;20025;-71
2022/06/03 02:21:16;;;;;;;7.28;4.53;;;;;;;9.00;100.00;102188.00;5032989;28;20115;-71
2022/06/03 02:23:59;;;;;;;6.53;4.47;;;;;;;8.99;100.00;102194.19;5026726;28;20080;-71
2022/06/03 02:26:43;;;;;;;7.80;4.40;;;;;;;8.94;100.00;102192.50;5027960;28;20067;-71
2022/06/03 02:32:46;;;;;;;6.25;4.28;;;;;;;8.87;100.00;102190.84;5030606;28;20984;-72
2022/06/03 02:35:25;;;;;;;6.57;4.35;;;;;;;8.85;100.00;102184.75;5026757;28;20029;-72
2022/06/03 02:38:22;;;;;;;7.75;4.40;;;;;;;8.83;100.00;102189.19;5027581;28;20253;-71
2022/06/03 02:41:10;;;;;;;7.00;4.68;;;;;;;8.81;100.00;102185.69;5004940;28;20057;-72
2022/06/03 02:44:02;;;;;;;7.70;4.88;;;;;;;8.82;100.00;102180.38;5012942;28;20034;-72
2022/06/03 02:47:19;;;;;;;7.57;4.85;;;;;;;8.83;100.00;102181.25;5028829;28;20042;-72
2022/06/03 02:50:09;;;;;;;6.43;4.80;;;;;;;8.80;100.00;102179.53;4990216;28;20088;-72
2022/06/03 02:53:12;;;;;;;8.98;4.65;;;;;;;8.79;100.00;102169.88;5025646;28;20534;-72
2022/06/03 02:55:43;;;;;;;8.27;5.03;;;;;;;8.76;100.00;102169.91;5012263;28;20060;-71
2022/06/03 02:58:12;;;;;;;7.05;5.05;;;;;;;8.75;100.00;102169.94;5012346;28;20308;-72
2022/06/03 03:00:40;;;;;;;8.63;5.43;;;;;;;8.74;100.00;102171.72;5012433;28;20025;-71
2022/06/03 03:03:12;;;;;;;9.27;5.00;;;;;;;8.71;100.00;102161.19;5012520;28;20037;-72
2022/06/03 03:06:08;;;;;;;7.72;4.97;;;;;;;8.69;100.00;102157.72;5002179;28;20847;-72
2022/06/03 03:08:59;;;;;;;6.53;4.78;;;;;;;8.66;100.00;102152.50;5027455;28;20052;-72
2022/06/03 03:11:40;;;;;;;6.82;4.80;;;;;;;8.65;100.00;102158.66;5027931;28;20069;-72
2022/06/03 03:14:14;;;;;;;7.97;4.97;;;;;;;8.63;100.00;102157.81;5012001;28;20399;-71
2022/06/03 03:16:40;;;;;;;7.28;5.25;;;;;;;8.60;100.00;102168.44;5027365;28;20072;-72
2022/06/03 03:19:34;;;;;;;8.20;5.15;;;;;;;8.59;100.00;102174.59;5008961;28;20132;-72
2022/06/03 03:22:28;;;;;;;9.50;5.00;;;;;;;8.59;100.00;102174.59;5027499;28;20049;-71
2022/06/03 03:25:43;;;;;;;7.93;5.35;;;;;;;8.56;100.00;102160.53;5012029;28;20037;-71
2022/06/03 03:28:08;;;;;;;9.23;5.25;;;;;;;8.56;100.00;102163.19;5006152;28;20045;-71
2022/06/03 03:31:11;;;;;;;9.45;5.50;;;;;;;8.56;100.00;102159.69;5012810;28;20680;-71
2022/06/03 03:33:56;;;;;;;8.93;5.57;;;;;;;8.53;100.00;102152.69;5010759;28;20048;-71
2022/06/03 03:36:42;;;;;;;6.88;5.13;;;;;;;8.53;100.00;102155.34;5010680;28;20029;-71
2022/06/03 03:39:28;;;;;;;8.82;5.43;;;;;;;8.52;100.00;102153.59;5011882;28;20392;-71
2022/06/03 03:41:57;;;;;;;8.38;5.18;;;;;;;8.51;100.00;102157.09;5028331;28;20142;-72
2022/06/03 03:44:31;;;;;;;8.43;5.57;;;;;;;8.50;100.00;102157.13;5026056;28;20048;-72
2022/06/03 03:47:18;;;;;;;8.10;5.53;;;;;;;8.48;100.00;102159.78;5016678;28;20504;-71
2022/06/03 03:50:07;;;;;;;7.32;5.22;;;;;;;8.47;100.00;102155.41;5025960;28;20041;-72
2022/06/03 03:52:38;;;;;;;7.15;5.18;;;;;;;8.48;100.00;102162.41;5024446;28;20463;-72
2022/06/03 03:55:31;;;;;;;7.30;5.75;;;;;;;8.50;100.00;102147.41;5011661;28;20041;-72
2022/06/03 03:58:09;;;;;;;7.72;5.50;;;;;;;8.52;100.00;102148.31;5010356;28;20037;-72
2022/06/03 04:01:01;;;;;;;8.32;5.60;;;;;;;8.53;100.00;102155.34;5010783;28;20065;-72
2022/06/03 04:03:41;;;;;;;10.25;6.15;;;;;;;8.54;100.00;102151.78;5002740;28;20047;-72
2022/06/03 04:06:44;;;;;;;7.85;5.53;;;;;;;8.56;100.00;102151.78;5012215;28;20504;-71
2022/06/03 04:09:24;;;;;;;8.00;5.50;;;;;;;8.58;100.00;102151.72;4954006;28;20632;-72
2022/06/03 04:11:59;;;;;;;8.55;5.38;;;;;;;8.58;100.00;102162.28;5012632;28;20064;-71
2022/06/03 04:14:48;;;;;;;10.52;6.00;;;;;;;8.59;100.00;102153.47;5013136;28;20056;-72
2022/06/03 04:17:35;;;;;;;9.85;7.15;;;;;;;8.60;100.00;102148.16;5004528;28;20496;-72
2022/06/03 04:20:08;;;;;;;12.23;7.65;;;;;;;8.65;100.00;102148.09;5003373;28;20041;-71
2022/06/03 04:22:40;;;;;;;;;;;;;;;8.68;100.00;102155.97;4999909;28;20419;-72
2022/06/03 04:25:28;;;;;;;9.55;6.93;;;;;;;8.71;100.00;102152.41;5015358;28;19928;-71
2022/06/03 04:28:17;;;;;;;9.98;7.45;;;;;;;8.75;100.00;102151.44;5034166;28;20377;-71
2022/06/03 04:31:21;;;;;;;10.02;6.55;;;;;;;8.81;100.00;102159.28;5035537;28;20055;-71
2022/06/03 04:34:09;;;;;;;9.88;6.90;;;;;;;8.82;100.00;102155.72;5024602;28;20040;-72
2022/06/03 04:37:04;;;;;;;9.07;5.93;;;;;;;8.87;100.00;102159.16;5015272;28;20079;-72
2022/06/03 04:39:48;;;;;;;11.68;5.85;;;;;;;8.93;100.00;102160.84;4985844;28;20033;-71
2022/06/03 04:42:51;;;;;;;7.32;5.30;;;;;;;9.00;100.00;102158.97;5034458;28;20920;-71
2022/06/03 04:46:02;;;;;;;6.75;5.18;;;;;;;9.06;100.00;102149.13;5031660;28;20033;-71
2022/06/03 04:48:41;;;;;;;6.95;5.30;;;;;;;9.13;100.00;102155.19;4932035;28;20043;-71
2022/06/03 04:51:28;;;;;;;6.70;5.28;;;;;;;9.22;100.00;102148.88;4901196;29;20047;-71
2022/06/03 04:54:22;;;;;;;7.38;4.97;;;;;;;9.28;100.00;102151.41;5002466;28;20139;-71
2022/06/03 04:56:56;;;;;;;8.10;5.05;;;;;;;9.40;100.00;102157.34;5034200;28;20048;-72
2022/06/03 04:59:59;;;;;;;7.68;4.97;;;;;;;9.49;100.00;102158.03;5033822;28;20567;-72
2022/06/03 05:02:37;;;;;;;6.20;4.68;;;;;;;9.58;100.00;102156.97;5034287;28;20044;-72
2022/06/03 05:05:17;;;;;;;7.25;4.40;;;;;;;9.67;100.00;102153.28;4999450;28;20071;-72
2022/06/03 05:08:01;;;;;;;8.55;4.93;;;;;;;9.81;100.00;102147.69;5015857;28;20037;-72
2022/06/03 05:10:33;;;;;;;6.85;4.30;;;;;;;9.99;100.00;102149.09;5033898;28;20645;-71
2022/06/03 05:12:58;;;;;;;5.45;4.15;;;;;;;10.23;100.00;102145.91;5015325;28;20029;-72
2022/06/03 05:15:52;;;;;;;6.85;4.35;;;;;;;10.50;100.00;102147.06;5032300;28;20632;-72
2022/06/03 05:18:50;;;;;;;7.32;4.25;;;;;;;10.75;100.00;102140.28;5035498;28;20098;-72
2022/06/03 05:21:34;;;;;;;5.75;4.18;;;;;;;10.94;100.00;102138.91;5037898;28;20552;-72
2022/06/03 05:24:41;;;;;;;8.40;4.35;;;;;;;11.12;100.00;102134.03;5037028;28;21029;-72
2022/06/03 05:27:12;;;;;;;5.93;3.88;;;;;;;11.23;100.00;102136.38;5007233;28;20041;-72
2022/06/03 05:29:58;;;;;;;5.93;4.07;;;;;;;11.36;100.00;102129.81;5021850;28;20029;-72
2022/06/03 05:32:43;;;;;;;4.32;3.80;;;;;;;11.49;100.00;102117.06;5024897;28;20531;-72
2022/06/03 05:35:37;;;;;;;5.32;3.83;;;;;;;11.66;100.00;102121.03;5036590;28;21478;-72
2022/06/03 05:38:02;;;;;;;;;;;;;;;11.82;99.81;102122.28;5038083;28;20033;-72
2022/06/03 05:40:52;;;;;;;5.47;3.67;;;;;;;11.97;99.85;102116.56;5024007;28;19925;-73
2022/06/03 05:43:39;;;;;;;5.03;3.40;;;;;;;12.08;97.65;102133.94;5030771;28;20041;-72
2022/06/03 05:46:16;;;;;;;5.30;3.85;;;;;;;12.16;95.75;102132.81;5017695;28;20769;-72
2022/06/03 05:48:54;;;;;;;7.72;3.72;;;;;;;12.25;96.38;102132.50;5033120;28;20029;-72
2022/06/03 05:51:39;;;;;;;5.82;3.22;;;;;;;12.38;96.55;102126.81;5034451;28;20033;-73
2022/06/03 05:54:42;;;;;;;4.30;3.40;;;;;;;12.54;95.38;102122.75;5017045;28;20058;-73
2022/06/03 05:57:23;;;;;;;4.40;3.30;;;;;;;12.69;94.55;102120.50;5031987;28;20048;-74
2022/06/03 06:00:09;;;;;;;4.53;3.72;;;;;;;12.81;94.01;102125.34;5026004;28;20044;-75
2022/06/03 06:02:44;;;;;;;6.63;3.50;;;;;;;12.96;94.03;102129.28;5024352;28;20033;-75
2022/06/03 06:05:21;;;;;;;5.53;3.65;;;;;;;13.12;94.26;102129.59;5012482;28;20043;-76
2022/06/03 06:08:18;;;;;;;5.25;3.15;;;;;;;13.28;90.19;102131.72;5033992;28;20036;-78
2022/06/03 06:11:05;;;;;;;3.88;2.83;;;;;;;13.39;92.65;102134.84;5025279;28;20090;-76
2022/06/03 06:13:58;;;;;;;4.35;3.45;;;;;;;13.60;91.72;102135.00;5015821;28;20033;-75
2022/06/03 06:16:33;;;;;;;3.58;2.63;;;;;;;13.78;90.20;102132.59;5030703;28;20033;-74
2022/06/03 06:19:10;;;;;;;6.55;3.00;;;;;;;13.89;90.77;102135.66;5030426;28;20312;-68
2022/06/03 06:21:36;;;;;;;3.35;2.88;;;;;;;14.03;90.10;102126.28;5008843;28;20032;-73
2022/06/03 06:24:11;;;;;;;3.55;2.70;;;;;;;14.17;89.27;102128.41;5034260;28;20045;-69
2022/06/03 06:26:39;;;;;;;5.88;2.88;;;;;;;14.28;88.62;102125.31;5031286;28;20581;-68
2022/06/03 06:29:29;;;;;;;4.55;2.53;;;;;;;14.40;85.96;102125.66;5015442;28;20444;-69
2022/06/03 06:32:13;;;;;;;3.55;2.70;;;;;;;14.54;86.19;102129.53;5031323;28;20049;-69
2022/06/03 06:35:26;;;;;;;4.10;2.33;;;;;;;14.69;83.64;102127.16;5033707;28;20045;-69
2022/06/03 06:37:51;;;;;;;2.33;2.10;;;;;;;14.77;86.25;102128.59;4951841;28;20049;-69
2022/06/03 06:40:45;;;;;;;2.78;2.00;;;;;;;14.92;81.97;102121.75;5033450;28;20094;-68
2022/06/03 06:43:21;;;;;;;;;;;;;;;15.06;79.69;102129.16;5033543;28;20056;-68
2022/06/03 06:45:59;;;;;;;2.05;1.85;;;;;;;15.16;81.31;102134.06;5014623;28;20023;-69
2022/06/03 06:48:58;;;;;;;2.03;1.73;;;;;;;15.25;80.26;102136.31;5012990;28;20040;-69
2022/06/03 06:51:44;;;;;;;2.47;1.75;;;;;;;15.46;80.08;102134.50;5017331;28;20040;-69
2022/06/03 06:54:48;;;;;;;2.88;1.58;;;;;;;15.57;77.87;102131.31;5030942;28;20047;-69
2022/06/03 06:57:14;;;;;;;1.92;1.70;;;;;;;15.73;79.97;102125.25;5014820;28;20037;-72
2022/06/03 06:59:43;;;;;;;2.83;1.50;;;;;;;15.85;79.46;102124.69;5015094;28;20083;-73
2022/06/03 07:02:12;;;;;;;2.63;1.55;;;;;;;15.97;78.01;102122.41;5006234;28;20029;-69
2022/06/03 07:04:43;;;;;;;1.33;1.23;;;;;;;15.98;75.66;102116.13;5033041;28;20036;-72
2022/06/03 07:07:17;;;;;;;2.78;1.70;;;;;;;16.01;76.49;102116.84;5032054;28;20032;-74
2022/06/03 07:09:52;;;;;;;2.20;1.30;;;;;;;16.15;76.71;102123.31;5015049;28;21104;-74
2022/06/03 07:12:31;;;;;;;3.50;1.50;;;;;;;16.30;74.20;102127.06;5032773;28;20041;-75
2022/06/03 07:15:06;;;;;;;1.83;1.33;;;;;;;16.37;75.71;102130.28;5022284;28;20033;-68
2022/06/03 07:21:11;;;;;;;3.88;1.50;;;;;;;16.55;69.67;102133.81;5016342;28;20044;-68
2022/06/03 07:24:04;;;;;;;1.55;1.33;;;;;;;16.61;72.17;102136.19;5011223;28;20045;-69
2022/06/03 07:26:35;;;;;;;2.15;1.30;;;;;;;16.65;73.28;102132.44;5011463;28;20029;-68
2022/06/03 07:29:22;;;;;;;2.22;1.38;;;;;;;16.84;69.85;102142.19;5011984;28;20037;-68
2022/06/03 07:31:51;;;;;;;1.33;1.20;;;;;;;16.93;70.60;102141.69;5027991;28;20044;-67
2022/06/03 07:34:25;;;;;;;1.88;1.02;;;;;;;16.95;70.75;102131.78;5013169;28;20040;-68
2022/06/03 07:37:02;;;;;;;3.78;1.10;;;;;;;17.07;69.16;102129.44;5010721;28;20376;-68
2022/06/03 07:39:49;;;;;;;1.52;1.40;;;;;;;17.14;70.42;102122.81;5019196;28;20029;-68
2022/06/03 07:42:27;;;;;;;2.25;1.17;;;;;;;17.27;70.13;102122.19;5010795;28;20049;-75
2022/06/03 07:45:02;;;;;;;2.20;1.45;;;;;;;17.45;70.50;102112.28;4995206;28;20595;-76
2022/06/03 07:47:28;;;;;;;1.40;1.30;;;;;;;17.55;71.00;102113.50;5011092;28;20041;-75
2022/06/03 07:49:56;;;;;;;1.50;1.40;;;;;;;17.68;70.95;102108.34;5011585;28;20455;-77
2022/06/03 07:52:24;;;;;;;1.52;1.20;;;;;;;17.84;69.72;102111.03;5009165;28;20156;-75
2022/06/03 07:54:57;;;;;;;3.20;1.48;;;;;;;17.86;69.22;102118.97;5011034;28;20037;-73
2022/06/03 07:57:26;;;;;;;1.40;1.30;;;;;;;17.95;70.19;102110.41;4994986;28;20025;-74
2022/06/03 07:59:56;;;;;;;1.23;1.05;;;;;;;18.10;68.82;102110.50;4978195;28;20173;-74
2022/06/03 08:02:23;;;;;;;1.95;1.20;;;;;;;18.10;68.18;102107.84;5011338;28;20034;-75
2022/06/03 08:05:04;;;;;;;1.73;1.05;;;;;;;18.20;67.97;102109.03;5010627;28;20061;-74
2022/06/03 08:13:12;;;;;;;2.40;1.35;;;;;;;18.65;68.82;102108.22;5002310;28;20471;-74
2022/06/03 08:15:41;;;;;;;3.85;1.58;;;;;;;18.67;66.61;102108.97;5005268;28;20376;-75
2022/06/03 08:18:08;;;;;;;2.75;1.45;;;;;;;18.64;67.48;102109.19;5008953;28;20029;-73
2022/06/03 08:21:17;;;;;;;2.28;1.30;;;;;;;18.70;63.14;102100.78;5008291;28;20037;-73
2022/06/03 08:23:44;;;;;;;1.42;1.30;;;;;;;18.68;66.24;102103.53;5013475;28;20040;-73
2022/06/03 08:26:15;;;;;;;0.98;0.98;;;;;;;18.75;65.66;102105.84;5014447;28;20060;-73
2022/06/03 08:28:48;;;;;;;3.13;1.67;;;;;;;18.73;65.66;102100.56;5004032;28;20067;-73
2022/06/03 08:31:14;;;;;;;1.20;1.10;;;;;;;18.83;66.88;102103.56;5032412;28;20036;-73
2022/06/03 08:33:54;;;;;;;1.20;1.10;;;;;;;19.02;63.60;102111.41;4984630;28;20120;-73
2022/06/03 08:36:22;;;;;;;1.95;1.30;;;;;;;19.09;65.08;102101.13;5014098;28;20377;-73
2022/06/03 08:38:56;;;;;;;1.00;1.00;;;;;;;19.11;66.30;102108.13;5012744;28;20475;-73
2022/06/03 08:41:43;;;;;;;2.00;1.23;;;;;;;19.22;63.83;102103.91;5032356;28;20801;-74
2022/06/03 08:44:18;;;;;;;1.40;1.30;;;;;;;19.26;64.34;102111.69;5028219;28;20049;-74
2022/06/03 08:47:08;;;;;;;1.73;1.33;;;;;;;19.26;64.53;102103.63;5030721;28;20044;-75
2022/06/03 08:49:45;;;;;;;1.80;1.30;;;;;;;19.38;64.46;102112.75;5032808;28;20048;-75
2022/06/03 08:52:12;;;;;;;1.40;0.95;;;;;;;19.30;64.47;102104.31;5031280;28;20032;-74
2022/06/03 08:54:42;;;;;;;4.25;1.40;;;;;;;19.25;63.97;102104.59;5017398;28;20369;-76
2022/06/03 08:57:12;;;;;;;2.17;1.25;;;;;;;19.29;64.93;102107.97;5013558;28;20045;-77
2022/06/03 08:59:42;;;;;;;2.00;1.10;;;;;;;19.36;65.31;102103.94;5014847;28;20144;-76
2022/06/03 09:02:10;;;;;;;1.13;1.00;;;;;;;19.39;64.29;102103.72;5015194;28;20476;-76
2022/06/03 09:04:40;;;;;;;1.20;1.10;;;;;;;19.47;64.31;102099.69;5013691;28;20032;-78
2022/06/03 09:07:10;;;;;;;1.48;1.17;;;;;;;19.46;62.13;102092.59;5032942;28;20242;-75
2022/06/03 09:09:56;;;;;;;0.85;0.85;;;;;;;19.47;61.26;102105.94;5032289;28;20115;-76
2022/06/03 09:12:28;;;;;;;1.17;1.08;;;;;;;19.50;62.08;102096.81;5036122;28;20037;-77
2022/06/03 09:14:55;;;;;;;0.95;0.95;;;;;;;19.45;62.33;102097.09;5034721;28;20076;-75
2022/06/03 09:17:40;;;;;;;1.10;1.00;;;;;;;19.38;63.19;102106.50;5015933;28;20510;-76
2022/06/03 09:20:19;;;;;;;2.50;1.38;;;;;;;19.49;62.63;102105.81;5025679;28;20578;-77
2022/06/03 09:22:46;;;;;;;1.95;1.20;;;;;;;19.62;62.33;102096.00;5012343;28;20037;-78
2022/06/03 09:25:14;;;;;;;1.10;1.10;;;;;;;19.72;61.09;102095.44;5027641;28;20398;-76
2022/06/03 09:27:41;;;;;;;1.35;1.25;;;;;;;19.73;61.90;102097.16;5002248;28;20087;-76
2022/06/03 09:30:08;;;;;;;1.98;1.30;;;;;;;19.76;61.09;102094.25;5009563;28;20040;-75
2022/06/03 09:32:41;;;;;;;2.25;1.13;;;;;;;19.87;60.83;102094.44;5013999;28;21474;-75
2022/06/03 09:35:08;;;;;;;;;;;;;;;20.00;56.20;102091.81;5014616;28;20033;-74
2022/06/03 09:37:37;;;;;;;2.22;1.17;;;;;;;20.05;60.08;102081.63;5015397;28;20395;-74
2022/06/03 09:40:07;;;;;;;0.90;0.90;;;;;;;20.11;59.25;102083.06;5014784;28;20803;-76
2022/06/03 09:42:33;;;;;;;1.60;1.02;;;;;;;20.12;58.78;102082.09;5021006;28;20029;-75
2022/06/03 09:45:04;;;;;;;2.17;1.50;;;;;;;20.12;57.20;102075.84;5012258;28;20056;-75
2022/06/03 09:47:30;;;;;;;1.60;1.42;;;;;;;20.18;58.37;102081.69;5014930;28;20388;-75
2022/06/03 09:49:56;;;;;;;1.70;1.15;;;;;;;20.25;58.39;102067.84;5026832;28;20037;-76
2022/06/03 09:52:24;;;;;;;1.77;1.40;;;;;;;20.25;58.68;102071.38;5008739;28;20490;-74
2022/06/03 09:54:51;;;;;;;3.08;1.60;;;;;;;20.30;58.54;102057.59;5010403;28;20041;-76
2022/06/03 09:57:25;;;;;;;1.48;1.38;;;;;;;20.37;58.47;102058.91;4999704;28;20034;-76
2022/06/03 10:00:12;;;;;;;2.63;1.63;;;;;;;20.32;55.74;102053.00;5012129;28;20050;-76
2022/06/03 10:02:39;;;;;;;2.25;1.40;;;;;;;20.18;57.21;102059.31;5018959;28;20049;-74
2022/06/03 10:05:05;;;;;;;2.20;1.30;;;;;;;20.08;57.07;102056.38;5009112;28;20070;-74
2022/06/03 10:07:31;;;;;;;1.42;1.33;;;;;;;19.97;56.59;102053.53;5024255;28;20041;-74
2022/06/03 10:12:52;;;;;;;2.58;1.38;;;;;;;19.90;57.86;102059.31;5009552;28;20037;-73
2022/06/03 10:15:43;;;;;;;2.05;1.48;;;;;;;19.89;54.95;102057.56;5011834;28;20049;-73
2022/06/03 10:18:24;;;;;;;2.15;1.38;;;;;;;19.83;55.14;102059.81;5024270;28;20071;-74
2022/06/03 10:20:52;;;;;;;1.30;1.20;;;;;;;19.80;55.28;102050.13;5017621;28;20049;-74
2022/06/03 10:23:22;;;;;;;3.13;1.48;;;;;;;19.83;56.75;102055.28;4989208;28;20044;-73
2022/06/03 10:25:51;;;;;;;2.55;1.60;;;;;;;19.95;57.21;102054.50;5009834;28;20040;-73
2022/06/03 10:28:17;;;;;;;1.13;1.02;;;;;;;19.99;57.46;102038.19;5009173;28;20051;-72
2022/06/03 10:30:44;;;;;;;2.22;1.80;;;;;;;19.98;56.60;102041.84;5009238;28;20766;-72
2022/06/03 10:33:18;;;;;;;1.30;1.20;;;;;;;19.94;56.56;102044.69;5011248;28;20034;-73
2022/06/03 10:35:45;;;;;;;3.45;1.60;;;;;;;19.97;56.94;102050.84;5007425;28;20034;-72
2022/06/03 10:38:15;;;;;;;1.70;1.60;;;;;;;19.88;55.68;102041.56;5012569;28;20029;-72
2022/06/03 10:40:44;;;;;;;1.20;1.17;;;;;;;19.87;56.66;102034.47;5010806;28;20045;-73
2022/06/03 10:43:10;;;;;;;2.40;2.15;;;;;;;19.97;56.61;102050.84;5009467;28;20044;-73
2022/06/03 10:45:37;;;;;;;1.85;1.38;;;;;;;19.91;55.76;102044.03;5011361;28;20035;-74
2022/06/03 10:48:29;;;;;;;2.10;1.50;;;;;;;19.82;53.66;102045.50;5024237;28;20034;-75
2022/06/03 10:51:17;;;;;;;1.42;1.33;;;;;;;19.88;55.66;102047.78;5006190;28;20084;-72
2022/06/03 11:02:01;;;;;;;1.85;1.23;;;;;;;20.04;56.57;102046.81;5021624;28;20583;-72
2022/06/03 11:04:38;;;;;;;1.98;1.48;;;;;;;20.08;54.19;102038.44;5014271;28;20072;-72
2022/06/03 11:07:22;;;;;;;2.22;1.10;;;;;;;20.09;51.71;102039.28;5029121;28;20107;-73
2022/06/03 11:10:14;;;;;;;3.03;1.50;;;;;;;20.02;51.73;102027.22;5010320;28;20131;-74
2022/06/03 11:12:42;;;;;;;1.37;1.27;;;;;;;20.01;54.68;102030.88;5008269;28;20053;-73
2022/06/03 11:15:31;;;;;;;3.45;1.40;;;;;;;19.93;52.89;102029.53;5018691;28;22164;-72
2022/06/03 11:17:59;;;;;;;1.42;1.30;;;;;;;19.79;55.53;102022.38;5013238;28;20099;-72
2022/06/03 11:20:39;;;;;;;1.45;1.35;;;;;;;19.79;55.23;102016.16;5009943;28;20025;-72
2022/06/03 11:23:07;;;;;;;1.50;1.40;;;;;;;19.80;55.64;102012.50;5011135;28;20060;-72
2022/06/03 11:25:36;;;;;;;1.45;1.35;;;;;;;19.87;55.66;102007.59;5011662;28;20053;-72
2022/06/03 11:28:18;;;;;;;1.50;1.40;;;;;;;19.93;54.31;102016.09;5011118;28;20030;-72
2022/06/03 11:31:00;;;;;;;;;;;;;;;19.88;53.40;102010.16;5011350;28;20045;-72
2022/06/03 11:33:38;;;;;;;2.83;1.48;;;;;;;19.90;55.23;102002.00;5009859;28;20051;-73
2022/06/03 11:36:14;;;;;;;1.55;1.45;;;;;;;19.78;54.88;102007.22;5011669;28;21044;-72
2022/06/03 11:38:44;;;;;;;1.65;1.40;;;;;;;19.63;54.92;101995.69;5012974;28;20204;-72
2022/06/03 11:41:19;;;;;;;1.98;1.58;;;;;;;19.54;54.64;101999.84;5018434;28;20029;-71
2022/06/03 11:43:50;;;;;;;2.65;1.15;;;;;;;19.53;54.46;101995.44;5016244;28;20042;-72
2022/06/03 11:46:20;;;;;;;2.95;1.30;;;;;;;19.53;55.28;101994.56;5010779;28;20049;-72
2022/06/03 11:48:46;;;;;;;1.55;1.45;;;;;;;19.54;55.15;101991.78;5012521;28;20504;-71
2022/06/03 11:51:12;;;;;;;1.42;1.33;;;;;;;19.51;55.89;101991.13;5010590;28;20044;-71
2022/06/03 11:53:41;;;;;;;1.77;1.60;;;;;;;19.53;56.13;102000.81;5000625;28;20964;-71
2022/06/03 11:56:09;;;;;;;1.40;1.30;;;;;;;19.56;56.33;102005.13;5009938;28;20037;-72
2022/06/03 11:58:53;;;;;;;1.33;1.23;;;;;;;19.54;54.08;102007.91;5011539;28;20140;-71
2022/06/03 12:01:24;;;;;;;1.67;1.55;;;;;;;19.65;55.98;102009.88;5017286;28;20044;-71
2022/06/03 12:04:14;;;;;;;1.80;1.33;;;;;;;19.67;55.54;102023.22;5024216;28;20037;-71
2022/06/03 12:07:02;;;;;;;1.58;1.48;;;;;;;19.62;55.61;102014.59;5012014;28;20052;-72
2022/06/03 12:09:37;;;;;;;1.85;1.60;;;;;;;19.55;55.41;102014.09;5006093;28;20668;-71
2022/06/03 12:15:38;;;;;;;1.67;1.40;;;;;;;19.47;55.24;102009.25;5008666;28;20033;-72
2022/06/03 12:18:07;;;;;;;2.17;1.50;;;;;;;19.44;56.00;102011.28;4987528;28;20509;-72
2022/06/03 12:20:32;;;;;;;1.55;1.40;;;;;;;19.36;55.66;102011.78;5025704;28;20048;-72
2022/06/03 12:23:13;;;;;;;1.70;1.48;;;;;;;19.29;54.27;102005.94;5016656;28;20049;-72
2022/06/03 12:25:51;;;;;;;1.60;1.50;;;;;;;19.34;56.17;102011.84;5015012;28;20045;-72
2022/06/03 12:28:27;;;;;;;3.13;1.70;;;;;;;19.27;56.03;102015.91;5032115;28;20040;-72
2022/06/03 12:31:11;;;;;;;2.22;1.73;;;;;;;19.29;56.48;102016.69;5036257;28;20037;-72
2022/06/03 12:33:47;;;;;;;3.97;1.77;;;;;;;19.28;55.53;102009.56;5016310;28;20067;-72
2022/06/03 12:36:25;;;;;;;1.60;1.50;;;;;;;19.26;56.89;102011.50;5021167;28;20032;-72
2022/06/03 12:39:09;;;;;;;1.70;1.40;;;;;;;19.21;55.90;102011.78;5018087;28;20045;-72
2022/06/03 12:41:43;;;;;;;1.60;1.50;;;;;;;19.28;57.34;102006.88;5035481;28;20029;-71
2022/06/03 12:44:34;;;;;;;1.83;1.73;;;;;;;19.31;57.39;102011.19;5039084;28;20056;-73
2022/06/03 12:47:18;;;;;;;2.65;1.83;;;;;;;19.21;56.81;102006.44;5018859;28;20040;-73
2022/06/03 12:49:44;;;;;;;2.10;1.90;;;;;;;19.19;57.78;102004.81;5038746;28;20061;-73
2022/06/03 12:52:35;;;;;;;1.67;1.58;;;;;;;19.22;57.68;102005.47;5033403;28;20116;-73
2022/06/03 12:55:28;;;;;;;2.00;1.80;;;;;;;19.17;59.36;102001.38;5020299;28;20029;-72